sensor_id;sensor_type;location;lat;lon;timestamp;P1;durP1;ratioP1;P2;durP2;ratioP2
18194;SDS011;9223;50.988;3.162;2022-07-18T00:01:51;7.88;;;4.70;;
18194;SDS011;9223;50.988;3.162;2022-07-18T00:07:56;6.10;;;4.28;;
18194;SDS011;9223;50.988;3.162;2022-07-18T00:13:59;7.25;;;5.05;;
18194;SDS011;9223;50.988;3.162;2022-07-18T00:20:04;6.45;;;4.85;;
18194;SDS011;9223;50.988;3.162;2022-07-18T00:26:09;8.02;;;4.97;;
18194;SDS011;9223;50.988;3.162;2022-07-18T00:32:12;5.32;;;4.53;;
18194;SDS011;9223;50.988;3.162;2022-07-18T00:38:16;8.38;;;4.70;;
18194;SDS011;9223;50.988;3.162;2022-07-18T00:44:21;6.03;;;4.57;;
18194;SDS011;9223;50.988;3.162;2022-07-18T00:50:25;8.07;;;4.75;;
18194;SDS011;9223;50.988;3.162;2022-07-18T00:56:28;5.00;;;4.50;;
18194;SDS011;9223;50.988;3.162;2022-07-18T01:02:34;5.95;;;4.55;;
18194;SDS011;9223;50.988;3.162;2022-07-18T01:08:37;8.20;;;5.72;;
18194;SDS011;9223;50.988;3.162;2022-07-18T01:14:41;6.00;;;4.90;;
18194;SDS011;9223;50.988;3.162;2022-07-18T01:20:46;8.93;;;4.93;;
18194;SDS011;9223;50.988;3.162;2022-07-18T01:26:50;7.32;;;4.65;;
18194;SDS011;9223;50.988;3.162;2022-07-18T01:32:57;6.35;;;4.90;;
18194;SDS011;9223;50.988;3.162;2022-07-18T01:39:02;7.05;;;4.63;;
18194;SDS011;9223;50.988;3.162;2022-07-18T01:45:06;5.90;;;4.78;;
18194;SDS011;9223;50.988;3.162;2022-07-18T01:51:09;6.78;;;4.22;;
18194;SDS011;9223;50.988;3.162;2022-07-18T01:57:14;5.05;;;4.55;;
18194;SDS011;9223;50.988;3.162;2022-07-18T02:03:17;5.07;;;3.88;;
18194;SDS011;9223;50.988;3.162;2022-07-18T02:09:21;5.63;;;4.32;;
18194;SDS011;9223;50.988;3.162;2022-07-18T02:15:26;5.28;;;4.40;;
18194;SDS011;9223;50.988;3.162;2022-07-18T02:21:29;7.38;;;4.10;;
18194;SDS011;9223;50.988;3.162;2022-07-18T02:27:32;6.18;;;4.40;;
18194;SDS011;9223;50.988;3.162;2022-07-18T02:33:37;5.60;;;4.10;;
18194;SDS011;9223;50.988;3.162;2022-07-18T02:39:41;4.70;;;4.15;;
18194;SDS011;9223;50.988;3.162;2022-07-18T02:45:44;4.93;;;4.30;;
18194;SDS011;9223;50.988;3.162;2022-07-18T02:51:49;5.82;;;4.05;;
18194;SDS011;9223;50.988;3.162;2022-07-18T02:57:53;6.10;;;4.55;;
18194;SDS011;9223;50.988;3.162;2022-07-18T03:03:56;9.95;;;5.00;;
18194;SDS011;9223;50.988;3.162;2022-07-18T03:10:02;7.55;;;4.95;;
18194;SDS011;9223;50.988;3.162;2022-07-18T03:16:06;6.18;;;4.25;;
18194;SDS011;9223;50.988;3.162;2022-07-18T03:22:10;6.30;;;4.57;;
18194;SDS011;9223;50.988;3.162;2022-07-18T03:28:15;6.07;;;4.65;;
18194;SDS011;9223;50.988;3.162;2022-07-18T03:34:18;7.15;;;4.72;;
18194;SDS011;9223;50.988;3.162;2022-07-18T03:40:22;5.68;;;4.65;;
18194;SDS011;9223;50.988;3.162;2022-07-18T03:46:26;6.68;;;4.60;;
18194;SDS011;9223;50.988;3.162;2022-07-18T03:52:30;5.07;;;4.45;;
18194;SDS011;9223;50.988;3.162;2022-07-18T03:58:34;5.95;;;4.55;;
18194;SDS011;9223;50.988;3.162;2022-07-18T04:04:38;6.72;;;4.40;;
18194;SDS011;9223;50.988;3.162;2022-07-18T04:10:42;7.78;;;4.57;;
18194;SDS011;9223;50.988;3.162;2022-07-18T04:16:46;5.38;;;4.72;;
18194;SDS011;9223;50.988;3.162;2022-07-18T04:22:52;8.20;;;5.53;;
18194;SDS011;9223;50.988;3.162;2022-07-18T04:28:55;7.88;;;5.13;;
18194;SDS011;9223;50.988;3.162;2022-07-18T04:34:59;8.45;;;5.07;;
18194;SDS011;9223;50.988;3.162;2022-07-18T04:41:04;5.38;;;4.50;;
18194;SDS011;9223;50.988;3.162;2022-07-18T04:47:07;5.70;;;4.90;;
18194;SDS011;9223;50.988;3.162;2022-07-18T04:53:11;9.23;;;5.40;;
18194;SDS011;9223;50.988;3.162;2022-07-18T04:59:15;10.18;;;4.88;;
18194;SDS011;9223;50.988;3.162;2022-07-18T05:05:19;9.68;;;4.88;;
18194;SDS011;9223;50.988;3.162;2022-07-18T05:11:23;7.18;;;5.60;;
18194;SDS011;9223;50.988;3.162;2022-07-18T05:17:28;8.43;;;4.80;;
18194;SDS011;9223;50.988;3.162;2022-07-18T05:23:31;6.35;;;4.88;;
18194;SDS011;9223;50.988;3.162;2022-07-18T05:29:34;9.63;;;6.07;;
18194;SDS011;9223;50.988;3.162;2022-07-18T05:35:39;7.57;;;5.00;;
18194;SDS011;9223;50.988;3.162;2022-07-18T05:41:43;7.10;;;5.07;;
18194;SDS011;9223;50.988;3.162;2022-07-18T05:47:46;7.88;;;5.63;;
18194;SDS011;9223;50.988;3.162;2022-07-18T05:53:51;13.38;;;5.93;;
18194;SDS011;9223;50.988;3.162;2022-07-18T05:59:55;7.80;;;6.20;;
18194;SDS011;9223;50.988;3.162;2022-07-18T06:05:58;9.18;;;5.40;;
18194;SDS011;9223;50.988;3.162;2022-07-18T06:12:03;7.60;;;5.60;;
18194;SDS011;9223;50.988;3.162;2022-07-18T06:18:07;9.73;;;6.38;;
18194;SDS011;9223;50.988;3.162;2022-07-18T06:24:10;9.23;;;5.57;;
18194;SDS011;9223;50.988;3.162;2022-07-18T06:30:15;10.93;;;6.10;;
18194;SDS011;9223;50.988;3.162;2022-07-18T06:36:18;6.95;;;5.70;;
18194;SDS011;9223;50.988;3.162;2022-07-18T06:42:25;10.25;;;5.25;;
18194;SDS011;9223;50.988;3.162;2022-07-18T06:48:30;10.02;;;5.22;;
18194;SDS011;9223;50.988;3.162;2022-07-18T06:54:34;10.25;;;5.00;;
18194;SDS011;9223;50.988;3.162;2022-07-18T07:00:40;10.15;;;4.88;;
18194;SDS011;9223;50.988;3.162;2022-07-18T07:06:45;10.27;;;5.28;;
18194;SDS011;9223;50.988;3.162;2022-07-18T07:12:49;7.65;;;4.43;;
18194;SDS011;9223;50.988;3.162;2022-07-18T07:18:52;7.10;;;4.38;;
18194;SDS011;9223;50.988;3.162;2022-07-18T07:24:57;7.30;;;4.57;;
18194;SDS011;9223;50.988;3.162;2022-07-18T07:31:01;9.50;;;3.80;;
18194;SDS011;9223;50.988;3.162;2022-07-18T07:37:04;6.22;;;4.05;;
18194;SDS011;9223;50.988;3.162;2022-07-18T07:43:10;5.72;;;3.30;;
18194;SDS011;9223;50.988;3.162;2022-07-18T07:49:14;7.60;;;3.38;;
18194;SDS011;9223;50.988;3.162;2022-07-18T07:55:17;7.03;;;2.80;;
18194;SDS011;9223;50.988;3.162;2022-07-18T08:01:22;5.18;;;2.42;;
18194;SDS011;9223;50.988;3.162;2022-07-18T08:07:26;4.63;;;2.47;;
18194;SDS011;9223;50.988;3.162;2022-07-18T08:13:29;6.93;;;3.10;;
18194;SDS011;9223;50.988;3.162;2022-07-18T08:19:34;3.08;;;1.98;;
18194;SDS011;9223;50.988;3.162;2022-07-18T08:25:38;4.60;;;2.38;;
18194;SDS011;9223;50.988;3.162;2022-07-18T08:31:42;4.47;;;2.80;;
18194;SDS011;9223;50.988;3.162;2022-07-18T08:37:47;2.97;;;2.33;;
18194;SDS011;9223;50.988;3.162;2022-07-18T08:43:51;3.15;;;2.30;;
18194;SDS011;9223;50.988;3.162;2022-07-18T08:49:54;5.88;;;2.33;;
18194;SDS011;9223;50.988;3.162;2022-07-18T08:55:59;3.38;;;1.83;;
18194;SDS011;9223;50.988;3.162;2022-07-18T09:02:03;4.53;;;1.70;;
18194;SDS011;9223;50.988;3.162;2022-07-18T09:08:10;3.72;;;1.70;;
18194;SDS011;9223;50.988;3.162;2022-07-18T09:14:28;3.20;;;1.67;;
18194;SDS011;9223;50.988;3.162;2022-07-18T09:20:31;3.55;;;2.00;;
18194;SDS011;9223;50.988;3.162;2022-07-18T09:26:37;3.83;;;1.80;;
18194;SDS011;9223;50.988;3.162;2022-07-18T09:32:42;4.32;;;1.95;;
18194;SDS011;9223;50.988;3.162;2022-07-18T09:38:46;5.40;;;1.95;;
18194;SDS011;9223;50.988;3.162;2022-07-18T09:44:56;1.98;;;1.52;;
18194;SDS011;9223;50.988;3.162;2022-07-18T09:51:01;2.50;;;1.80;;
18194;SDS011;9223;50.988;3.162;2022-07-18T09:57:05;5.00;;;2.05;;
18194;SDS011;9223;50.988;3.162;2022-07-18T10:03:09;3.78;;;1.40;;
18194;SDS011;9223;50.988;3.162;2022-07-18T10:09:14;3.38;;;1.70;;
18194;SDS011;9223;50.988;3.162;2022-07-18T10:15:19;5.75;;;1.70;;
18194;SDS011;9223;50.988;3.162;2022-07-18T10:21:23;2.60;;;1.73;;
18194;SDS011;9223;50.988;3.162;2022-07-18T10:33:51;2.20;;;1.80;;
18194;SDS011;9223;50.988;3.162;2022-07-18T10:39:54;4.07;;;1.80;;
18194;SDS011;9223;50.988;3.162;2022-07-18T10:45:58;2.53;;;1.77;;
18194;SDS011;9223;50.988;3.162;2022-07-18T10:52:03;2.80;;;1.70;;
18194;SDS011;9223;50.988;3.162;2022-07-18T10:58:19;3.00;;;1.73;;
18194;SDS011;9223;50.988;3.162;2022-07-18T11:04:27;3.00;;;2.08;;
18194;SDS011;9223;50.988;3.162;2022-07-18T11:17:04;2.28;;;1.83;;
18194;SDS011;9223;50.988;3.162;2022-07-18T11:23:16;2.92;;;1.55;;
18194;SDS011;9223;50.988;3.162;2022-07-18T11:29:20;2.78;;;2.03;;
18194;SDS011;9223;50.988;3.162;2022-07-18T11:35:24;1.67;;;1.58;;
18194;SDS011;9223;50.988;3.162;2022-07-18T11:41:28;4.50;;;2.17;;
18194;SDS011;9223;50.988;3.162;2022-07-18T11:47:37;2.15;;;1.95;;
18194;SDS011;9223;50.988;3.162;2022-07-18T11:53:45;2.03;;;1.80;;
18194;SDS011;9223;50.988;3.162;2022-07-18T11:59:48;2.15;;;1.95;;
18194;SDS011;9223;50.988;3.162;2022-07-18T12:05:53;2.70;;;1.83;;
18194;SDS011;9223;50.988;3.162;2022-07-18T12:11:58;1.50;;;1.40;;
18194;SDS011;9223;50.988;3.162;2022-07-18T12:18:27;2.83;;;1.70;;
18194;SDS011;9223;50.988;3.162;2022-07-18T12:24:31;2.70;;;2.00;;
18194;SDS011;9223;50.988;3.162;2022-07-18T12:30:36;1.67;;;1.48;;
18194;SDS011;9223;50.988;3.162;2022-07-18T12:36:52;2.33;;;1.80;;
18194;SDS011;9223;50.988;3.162;2022-07-18T12:43:02;2.83;;;1.90;;
18194;SDS011;9223;50.988;3.162;2022-07-18T12:49:09;2.40;;;2.13;;
18194;SDS011;9223;50.988;3.162;2022-07-18T12:55:13;3.30;;;2.00;;
18194;SDS011;9223;50.988;3.162;2022-07-18T13:01:17;3.88;;;2.20;;
18194;SDS011;9223;50.988;3.162;2022-07-18T13:07:22;2.15;;;1.83;;
18194;SDS011;9223;50.988;3.162;2022-07-18T13:13:25;2.53;;;2.03;;
18194;SDS011;9223;50.988;3.162;2022-07-18T13:19:29;3.70;;;2.10;;
18194;SDS011;9223;50.988;3.162;2022-07-18T13:25:34;6.57;;;2.00;;
18194;SDS011;9223;50.988;3.162;2022-07-18T13:31:37;5.15;;;2.22;;
18194;SDS011;9223;50.988;3.162;2022-07-18T13:37:41;3.20;;;2.15;;
18194;SDS011;9223;50.988;3.162;2022-07-18T13:43:46;2.50;;;1.88;;
18194;SDS011;9223;50.988;3.162;2022-07-18T13:49:49;3.70;;;2.20;;
18194;SDS011;9223;50.988;3.162;2022-07-18T13:55:53;2.92;;;1.92;;
18194;SDS011;9223;50.988;3.162;2022-07-18T14:01:58;4.38;;;2.33;;
18194;SDS011;9223;50.988;3.162;2022-07-18T14:08:02;3.47;;;1.90;;
18194;SDS011;9223;50.988;3.162;2022-07-18T14:14:05;2.72;;;2.30;;
18194;SDS011;9223;50.988;3.162;2022-07-18T14:20:10;3.22;;;1.90;;
18194;SDS011;9223;50.988;3.162;2022-07-18T14:26:15;2.63;;;1.60;;
18194;SDS011;9223;50.988;3.162;2022-07-18T14:32:19;1.52;;;1.08;;
18194;SDS011;9223;50.988;3.162;2022-07-18T14:38:24;3.22;;;1.75;;
18194;SDS011;9223;50.988;3.162;2022-07-18T14:44:28;1.98;;;1.77;;
18194;SDS011;9223;50.988;3.162;2022-07-18T14:50:31;2.47;;;1.65;;
18194;SDS011;9223;50.988;3.162;2022-07-18T14:56:36;2.53;;;2.10;;
18194;SDS011;9223;50.988;3.162;2022-07-18T15:02:39;2.40;;;1.48;;
18194;SDS011;9223;50.988;3.162;2022-07-18T15:08:43;5.22;;;1.85;;
18194;SDS011;9223;50.988;3.162;2022-07-18T15:14:48;1.48;;;1.35;;
18194;SDS011;9223;50.988;3.162;2022-07-18T15:20:51;1.75;;;1.20;;
18194;SDS011;9223;50.988;3.162;2022-07-18T15:26:55;2.08;;;1.02;;
18194;SDS011;9223;50.988;3.162;2022-07-18T15:33:00;1.65;;;1.45;;
18194;SDS011;9223;50.988;3.162;2022-07-18T15:39:03;1.95;;;1.52;;
18194;SDS011;9223;50.988;3.162;2022-07-18T15:45:07;1.25;;;1.15;;
18194;SDS011;9223;50.988;3.162;2022-07-18T15:51:12;3.08;;;1.75;;
18194;SDS011;9223;50.988;3.162;2022-07-18T15:57:16;5.50;;;2.08;;
18194;SDS011;9223;50.988;3.162;2022-07-18T16:03:20;2.20;;;1.98;;
18194;SDS011;9223;50.988;3.162;2022-07-18T16:09:25;2.75;;;1.98;;
18194;SDS011;9223;50.988;3.162;2022-07-18T16:15:28;4.78;;;2.20;;
18194;SDS011;9223;50.988;3.162;2022-07-18T16:21:32;3.72;;;2.10;;
18194;SDS011;9223;50.988;3.162;2022-07-18T16:27:37;7.68;;;2.15;;
18194;SDS011;9223;50.988;3.162;2022-07-18T16:33:40;2.42;;;1.88;;
18194;SDS011;9223;50.988;3.162;2022-07-18T16:39:44;5.18;;;2.00;;
18194;SDS011;9223;50.988;3.162;2022-07-18T16:45:49;5.55;;;2.03;;
18194;SDS011;9223;50.988;3.162;2022-07-18T16:51:53;4.55;;;2.00;;
18194;SDS011;9223;50.988;3.162;2022-07-18T16:57:57;4.20;;;1.55;;
18194;SDS011;9223;50.988;3.162;2022-07-18T17:04:02;2.28;;;1.60;;
18194;SDS011;9223;50.988;3.162;2022-07-18T17:10:07;3.45;;;1.73;;
18194;SDS011;9223;50.988;3.162;2022-07-18T17:16:10;3.47;;;2.30;;
18194;SDS011;9223;50.988;3.162;2022-07-18T17:22:16;2.28;;;1.60;;
18194;SDS011;9223;50.988;3.162;2022-07-18T17:28:20;3.75;;;1.75;;
18194;SDS011;9223;50.988;3.162;2022-07-18T17:34:24;2.10;;;1.50;;
18194;SDS011;9223;50.988;3.162;2022-07-18T17:40:29;2.10;;;1.75;;
18194;SDS011;9223;50.988;3.162;2022-07-18T17:46:33;6.10;;;2.22;;
18194;SDS011;9223;50.988;3.162;2022-07-18T17:52:37;2.78;;;1.48;;
18194;SDS011;9223;50.988;3.162;2022-07-18T17:58:42;2.22;;;1.38;;
18194;SDS011;9223;50.988;3.162;2022-07-18T18:04:45;1.50;;;1.20;;
18194;SDS011;9223;50.988;3.162;2022-07-18T18:10:49;3.42;;;2.15;;
18194;SDS011;9223;50.988;3.162;2022-07-18T18:16:54;5.90;;;3.15;;
18194;SDS011;9223;50.988;3.162;2022-07-18T18:23:04;5.60;;;2.83;;
18194;SDS011;9223;50.988;3.162;2022-07-18T18:29:08;3.67;;;2.47;;
18194;SDS011;9223;50.988;3.162;2022-07-18T18:35:19;5.53;;;3.15;;
18194;SDS011;9223;50.988;3.162;2022-07-18T18:41:23;3.55;;;2.40;;
18194;SDS011;9223;50.988;3.162;2022-07-18T18:47:34;3.53;;;2.60;;
18194;SDS011;9223;50.988;3.162;2022-07-18T18:53:39;4.68;;;2.55;;
18194;SDS011;9223;50.988;3.162;2022-07-18T18:59:42;3.40;;;2.10;;
18194;SDS011;9223;50.988;3.162;2022-07-18T19:05:46;3.58;;;2.35;;
18194;SDS011;9223;50.988;3.162;2022-07-18T19:11:51;2.38;;;2.08;;
18194;SDS011;9223;50.988;3.162;2022-07-18T19:17:55;7.35;;;2.22;;
18194;SDS011;9223;50.988;3.162;2022-07-18T19:23:59;2.55;;;2.10;;
18194;SDS011;9223;50.988;3.162;2022-07-18T19:30:04;2.90;;;2.33;;
18194;SDS011;9223;50.988;3.162;2022-07-18T19:36:08;3.75;;;2.20;;
18194;SDS011;9223;50.988;3.162;2022-07-18T19:42:11;6.10;;;2.70;;
18194;SDS011;9223;50.988;3.162;2022-07-18T19:48:16;7.38;;;2.28;;
18194;SDS011;9223;50.988;3.162;2022-07-18T19:54:20;3.63;;;2.72;;
18194;SDS011;9223;50.988;3.162;2022-07-18T20:00:23;6.15;;;3.10;;
18194;SDS011;9223;50.988;3.162;2022-07-18T20:06:28;4.93;;;2.55;;
18194;SDS011;9223;50.988;3.162;2022-07-18T20:12:34;8.73;;;3.13;;
18194;SDS011;9223;50.988;3.162;2022-07-18T20:18:38;5.93;;;2.80;;
18194;SDS011;9223;50.988;3.162;2022-07-18T20:24:49;6.65;;;2.85;;
18194;SDS011;9223;50.988;3.162;2022-07-18T20:30:53;7.60;;;3.03;;
18194;SDS011;9223;50.988;3.162;2022-07-18T20:36:56;4.82;;;2.80;;
18194;SDS011;9223;50.988;3.162;2022-07-18T20:43:01;7.45;;;2.90;;
18194;SDS011;9223;50.988;3.162;2022-07-18T20:49:05;5.53;;;2.55;;
18194;SDS011;9223;50.988;3.162;2022-07-18T20:55:09;8.95;;;3.10;;
18194;SDS011;9223;50.988;3.162;2022-07-18T21:01:14;6.05;;;2.83;;
18194;SDS011;9223;50.988;3.162;2022-07-18T21:07:17;4.45;;;2.65;;
18194;SDS011;9223;50.988;3.162;2022-07-18T21:13:21;6.82;;;3.10;;
18194;SDS011;9223;50.988;3.162;2022-07-18T21:19:26;4.28;;;2.70;;
18194;SDS011;9223;50.988;3.162;2022-07-18T21:25:30;3.60;;;2.80;;
18194;SDS011;9223;50.988;3.162;2022-07-18T21:31:33;5.68;;;2.55;;
18194;SDS011;9223;50.988;3.162;2022-07-18T21:37:41;7.63;;;3.03;;
18194;SDS011;9223;50.988;3.162;2022-07-18T21:43:44;5.20;;;3.25;;
18194;SDS011;9223;50.988;3.162;2022-07-18T21:49:48;7.72;;;3.33;;
18194;SDS011;9223;50.988;3.162;2022-07-18T21:55:54;6.32;;;3.40;;
18194;SDS011;9223;50.988;3.162;2022-07-18T22:01:57;7.13;;;3.25;;
18194;SDS011;9223;50.988;3.162;2022-07-18T22:08:01;4.50;;;3.20;;
18194;SDS011;9223;50.988;3.162;2022-07-18T22:14:06;5.10;;;3.33;;
18194;SDS011;9223;50.988;3.162;2022-07-18T22:20:10;5.80;;;3.50;;
18194;SDS011;9223;50.988;3.162;2022-07-18T22:26:14;5.00;;;3.15;;
18194;SDS011;9223;50.988;3.162;2022-07-18T22:32:19;4.95;;;3.20;;
18194;SDS011;9223;50.988;3.162;2022-07-18T22:38:22;6.07;;;3.03;;
18194;SDS011;9223;50.988;3.162;2022-07-18T22:44:26;21.33;;;3.72;;
18194;SDS011;9223;50.988;3.162;2022-07-18T22:50:31;5.80;;;3.22;;
18194;SDS011;9223;50.988;3.162;2022-07-18T22:56:35;4.45;;;2.92;;
18194;SDS011;9223;50.988;3.162;2022-07-18T23:02:39;6.05;;;3.38;;
18194;SDS011;9223;50.988;3.162;2022-07-18T23:08:43;5.20;;;3.72;;
18194;SDS011;9223;50.988;3.162;2022-07-18T23:14:47;5.25;;;3.40;;
18194;SDS011;9223;50.988;3.162;2022-07-18T23:20:50;4.72;;;3.53;;
18194;SDS011;9223;50.988;3.162;2022-07-18T23:26:55;3.35;;;3.05;;
18194;SDS011;9223;50.988;3.162;2022-07-18T23:32:59;4.00;;;3.15;;
18194;SDS011;9223;50.988;3.162;2022-07-18T23:39:02;6.85;;;3.42;;
18194;SDS011;9223;50.988;3.162;2022-07-18T23:45:08;4.72;;;3.35;;
18194;SDS011;9223;50.988;3.162;2022-07-18T23:51:12;5.30;;;3.15;;
18194;SDS011;9223;50.988;3.162;2022-07-18T23:57:15;4.25;;;3.83;;
